sensor_id;sensor_type;location;lat;lon;timestamp;P1;durP1;ratioP1;P2;durP2;ratioP2
55913;SDS011;58179;48.776;9.124;2024-02-23T00:01:27;3.15;;;1.40;;
55913;SDS011;58179;48.776;9.124;2024-02-23T00:03:54;3.20;;;1.40;;
55913;SDS011;58179;48.776;9.124;2024-02-23T00:06:24;1.90;;;1.40;;
55913;SDS011;58179;48.776;9.124;2024-02-23T00:08:52;3.47;;;1.30;;
55913;SDS011;58179;48.776;9.124;2024-02-23T00:11:19;4.70;;;1.40;;
55913;SDS011;58179;48.776;9.124;2024-02-23T00:13:45;2.15;;;1.23;;
55913;SDS011;58179;48.776;9.124;2024-02-23T00:16:12;1.95;;;1.40;;
55913;SDS011;58179;48.776;9.124;2024-02-23T00:18:38;4.20;;;1.40;;
55913;SDS011;58179;48.776;9.124;2024-02-23T00:21:04;3.00;;;1.40;;
55913;SDS011;58179;48.776;9.124;2024-02-23T00:23:31;1.80;;;1.20;;
55913;SDS011;58179;48.776;9.124;2024-02-23T00:25:57;1.55;;;1.30;;
55913;SDS011;58179;48.776;9.124;2024-02-23T00:28:24;3.90;;;1.50;;
55913;SDS011;58179;48.776;9.124;2024-02-23T00:30:50;4.43;;;1.45;;
55913;SDS011;58179;48.776;9.124;2024-02-23T00:33:16;3.40;;;1.40;;
55913;SDS011;58179;48.776;9.124;2024-02-23T00:35:42;2.67;;;1.45;;
55913;SDS011;58179;48.776;9.124;2024-02-23T00:38:08;3.65;;;1.60;;
55913;SDS011;58179;48.776;9.124;2024-02-23T00:40:36;3.10;;;1.40;;
55913;SDS011;58179;48.776;9.124;2024-02-23T00:43:03;6.80;;;1.63;;
55913;SDS011;58179;48.776;9.124;2024-02-23T00:45:29;3.72;;;1.40;;
55913;SDS011;58179;48.776;9.124;2024-02-23T00:47:55;4.28;;;1.65;;
55913;SDS011;58179;48.776;9.124;2024-02-23T00:50:25;5.53;;;1.55;;
55913;SDS011;58179;48.776;9.124;2024-02-23T00:52:51;2.10;;;1.40;;
55913;SDS011;58179;48.776;9.124;2024-02-23T00:55:18;2.95;;;1.50;;
55913;SDS011;58179;48.776;9.124;2024-02-23T00:57:46;4.70;;;1.70;;
55913;SDS011;58179;48.776;9.124;2024-02-23T01:00:12;3.90;;;1.50;;
55913;SDS011;58179;48.776;9.124;2024-02-23T01:02:39;4.38;;;2.25;;
55913;SDS011;58179;48.776;9.124;2024-02-23T01:05:05;4.93;;;1.50;;
55913;SDS011;58179;48.776;9.124;2024-02-23T01:07:34;5.17;;;1.60;;
55913;SDS011;58179;48.776;9.124;2024-02-23T01:10:00;6.47;;;1.60;;
55913;SDS011;58179;48.776;9.124;2024-02-23T01:12:26;6.15;;;1.70;;
55913;SDS011;58179;48.776;9.124;2024-02-23T01:14:54;4.10;;;1.58;;
55913;SDS011;58179;48.776;9.124;2024-02-23T01:17:20;7.63;;;1.70;;
55913;SDS011;58179;48.776;9.124;2024-02-23T01:19:46;3.15;;;1.70;;
55913;SDS011;58179;48.776;9.124;2024-02-23T01:22:12;3.72;;;1.40;;
55913;SDS011;58179;48.776;9.124;2024-02-23T01:24:39;4.05;;;1.55;;
55913;SDS011;58179;48.776;9.124;2024-02-23T01:27:06;6.55;;;1.83;;
55913;SDS011;58179;48.776;9.124;2024-02-23T01:29:32;4.25;;;1.80;;
55913;SDS011;58179;48.776;9.124;2024-02-23T01:32:00;7.82;;;1.80;;
55913;SDS011;58179;48.776;9.124;2024-02-23T01:34:26;3.75;;;1.70;;
55913;SDS011;58179;48.776;9.124;2024-02-23T01:36:52;7.25;;;1.80;;
55913;SDS011;58179;48.776;9.124;2024-02-23T01:39:19;5.97;;;1.95;;
55913;SDS011;58179;48.776;9.124;2024-02-23T01:41:45;5.75;;;2.00;;
55913;SDS011;58179;48.776;9.124;2024-02-23T01:44:11;7.03;;;2.00;;
55913;SDS011;58179;48.776;9.124;2024-02-23T01:46:37;6.73;;;1.97;;
55913;SDS011;58179;48.776;9.124;2024-02-23T01:49:05;4.85;;;2.00;;
55913;SDS011;58179;48.776;9.124;2024-02-23T01:51:33;4.90;;;2.10;;
55913;SDS011;58179;48.776;9.124;2024-02-23T01:53:59;10.40;;;2.30;;
55913;SDS011;58179;48.776;9.124;2024-02-23T01:56:26;5.50;;;2.00;;
55913;SDS011;58179;48.776;9.124;2024-02-23T01:58:52;4.53;;;1.90;;
55913;SDS011;58179;48.776;9.124;2024-02-23T02:01:20;6.28;;;2.20;;
55913;SDS011;58179;48.776;9.124;2024-02-23T02:03:46;8.57;;;2.10;;
55913;SDS011;58179;48.776;9.124;2024-02-23T02:06:13;5.00;;;1.87;;
55913;SDS011;58179;48.776;9.124;2024-02-23T02:08:40;7.30;;;2.30;;
55913;SDS011;58179;48.776;9.124;2024-02-23T02:11:06;4.50;;;1.90;;
55913;SDS011;58179;48.776;9.124;2024-02-23T02:13:32;7.53;;;1.90;;
55913;SDS011;58179;48.776;9.124;2024-02-23T02:15:59;7.75;;;1.95;;
55913;SDS011;58179;48.776;9.124;2024-02-23T02:18:27;11.80;;;2.17;;
55913;SDS011;58179;48.776;9.124;2024-02-23T02:20:53;9.05;;;1.90;;
55913;SDS011;58179;48.776;9.124;2024-02-23T02:23:21;5.67;;;2.17;;
55913;SDS011;58179;48.776;9.124;2024-02-23T02:25:51;7.18;;;1.90;;
55913;SDS011;58179;48.776;9.124;2024-02-23T02:28:18;7.23;;;2.00;;
55913;SDS011;58179;48.776;9.124;2024-02-23T02:30:44;7.10;;;1.80;;
55913;SDS011;58179;48.776;9.124;2024-02-23T02:33:10;6.35;;;1.95;;
55913;SDS011;58179;48.776;9.124;2024-02-23T02:35:37;9.40;;;2.17;;
55913;SDS011;58179;48.776;9.124;2024-02-23T02:38:03;7.07;;;2.00;;
55913;SDS011;58179;48.776;9.124;2024-02-23T02:40:30;7.10;;;2.07;;
55913;SDS011;58179;48.776;9.124;2024-02-23T02:42:57;9.80;;;2.30;;
55913;SDS011;58179;48.776;9.124;2024-02-23T02:45:23;10.75;;;2.08;;
55913;SDS011;58179;48.776;9.124;2024-02-23T02:47:49;4.43;;;1.80;;
55913;SDS011;58179;48.776;9.124;2024-02-23T02:50:15;5.75;;;1.75;;
55913;SDS011;58179;48.776;9.124;2024-02-23T02:52:41;8.18;;;1.83;;
55913;SDS011;58179;48.776;9.124;2024-02-23T02:55:08;11.93;;;2.20;;
55913;SDS011;58179;48.776;9.124;2024-02-23T02:57:35;6.10;;;1.83;;
55913;SDS011;58179;48.776;9.124;2024-02-23T03:00:02;5.68;;;1.85;;
55913;SDS011;58179;48.776;9.124;2024-02-23T03:02:30;10.70;;;2.10;;
55913;SDS011;58179;48.776;9.124;2024-02-23T03:04:56;6.63;;;1.95;;
55913;SDS011;58179;48.776;9.124;2024-02-23T03:07:22;5.55;;;1.90;;
55913;SDS011;58179;48.776;9.124;2024-02-23T03:09:48;7.90;;;2.08;;
55913;SDS011;58179;48.776;9.124;2024-02-23T03:12:15;4.90;;;1.70;;
55913;SDS011;58179;48.776;9.124;2024-02-23T03:14:43;5.43;;;2.22;;
55913;SDS011;58179;48.776;9.124;2024-02-23T03:17:10;5.55;;;1.98;;
55913;SDS011;58179;48.776;9.124;2024-02-23T03:19:36;4.03;;;1.92;;
55913;SDS011;58179;48.776;9.124;2024-02-23T03:22:03;4.25;;;2.00;;
55913;SDS011;58179;48.776;9.124;2024-02-23T03:24:29;3.45;;;1.80;;
55913;SDS011;58179;48.776;9.124;2024-02-23T03:26:55;9.70;;;2.20;;
55913;SDS011;58179;48.776;9.124;2024-02-23T03:29:22;7.90;;;2.40;;
55913;SDS011;58179;48.776;9.124;2024-02-23T03:31:55;5.55;;;2.00;;
55913;SDS011;58179;48.776;9.124;2024-02-23T03:34:21;6.57;;;2.50;;
55913;SDS011;58179;48.776;9.124;2024-02-23T03:36:48;6.97;;;2.10;;
55913;SDS011;58179;48.776;9.124;2024-02-23T03:39:14;5.95;;;2.10;;
55913;SDS011;58179;48.776;9.124;2024-02-23T03:41:40;6.40;;;2.00;;
55913;SDS011;58179;48.776;9.124;2024-02-23T03:44:06;4.97;;;2.10;;
55913;SDS011;58179;48.776;9.124;2024-02-23T03:46:33;5.18;;;2.25;;
55913;SDS011;58179;48.776;9.124;2024-02-23T03:49:01;7.60;;;2.50;;
55913;SDS011;58179;48.776;9.124;2024-02-23T03:51:27;6.05;;;2.33;;
55913;SDS011;58179;48.776;9.124;2024-02-23T03:53:53;6.93;;;2.10;;
55913;SDS011;58179;48.776;9.124;2024-02-23T03:56:19;3.45;;;2.28;;
55913;SDS011;58179;48.776;9.124;2024-02-23T03:58:45;9.60;;;2.40;;
55913;SDS011;58179;48.776;9.124;2024-02-23T04:01:11;7.38;;;2.28;;
55913;SDS011;58179;48.776;9.124;2024-02-23T04:03:37;9.70;;;2.75;;
55913;SDS011;58179;48.776;9.124;2024-02-23T04:06:05;5.70;;;2.20;;
55913;SDS011;58179;48.776;9.124;2024-02-23T04:08:32;3.60;;;2.03;;
55913;SDS011;58179;48.776;9.124;2024-02-23T04:10:58;6.18;;;2.40;;
55913;SDS011;58179;48.776;9.124;2024-02-23T04:13:24;6.47;;;2.13;;
55913;SDS011;58179;48.776;9.124;2024-02-23T04:15:50;6.10;;;2.25;;
55913;SDS011;58179;48.776;9.124;2024-02-23T04:18:17;7.30;;;2.60;;
55913;SDS011;58179;48.776;9.124;2024-02-23T04:20:43;5.65;;;2.40;;
55913;SDS011;58179;48.776;9.124;2024-02-23T04:23:10;8.00;;;2.40;;
55913;SDS011;58179;48.776;9.124;2024-02-23T04:25:36;9.23;;;2.45;;
55913;SDS011;58179;48.776;9.124;2024-02-23T04:28:02;6.60;;;2.58;;
55913;SDS011;58179;48.776;9.124;2024-02-23T04:30:29;5.10;;;2.20;;
55913;SDS011;58179;48.776;9.124;2024-02-23T04:32:56;6.10;;;2.40;;
55913;SDS011;58179;48.776;9.124;2024-02-23T04:35:22;7.37;;;2.40;;
55913;SDS011;58179;48.776;9.124;2024-02-23T04:37:48;11.73;;;3.50;;
55913;SDS011;58179;48.776;9.124;2024-02-23T04:40:16;5.65;;;2.50;;
55913;SDS011;58179;48.776;9.124;2024-02-23T04:42:43;5.57;;;2.50;;
55913;SDS011;58179;48.776;9.124;2024-02-23T04:45:10;5.07;;;2.25;;
55913;SDS011;58179;48.776;9.124;2024-02-23T04:47:37;6.67;;;2.33;;
55913;SDS011;58179;48.776;9.124;2024-02-23T04:50:05;8.70;;;2.65;;
55913;SDS011;58179;48.776;9.124;2024-02-23T04:52:32;7.22;;;2.35;;
55913;SDS011;58179;48.776;9.124;2024-02-23T04:54:58;5.15;;;2.35;;
55913;SDS011;58179;48.776;9.124;2024-02-23T04:57:25;3.20;;;2.13;;
55913;SDS011;58179;48.776;9.124;2024-02-23T04:59:52;5.43;;;2.20;;
55913;SDS011;58179;48.776;9.124;2024-02-23T05:02:18;4.25;;;2.42;;
55913;SDS011;58179;48.776;9.124;2024-02-23T05:04:44;4.72;;;2.22;;
55913;SDS011;58179;48.776;9.124;2024-02-23T05:07:10;6.15;;;2.40;;
55913;SDS011;58179;48.776;9.124;2024-02-23T05:09:36;3.80;;;2.08;;
55913;SDS011;58179;48.776;9.124;2024-02-23T05:12:03;5.38;;;2.45;;
55913;SDS011;58179;48.776;9.124;2024-02-23T05:14:30;6.25;;;2.42;;
55913;SDS011;58179;48.776;9.124;2024-02-23T05:16:57;4.60;;;2.40;;
55913;SDS011;58179;48.776;9.124;2024-02-23T05:19:23;5.80;;;2.20;;
55913;SDS011;58179;48.776;9.124;2024-02-23T05:21:49;9.70;;;2.47;;
55913;SDS011;58179;48.776;9.124;2024-02-23T05:24:15;7.95;;;2.45;;
55913;SDS011;58179;48.776;9.124;2024-02-23T05:26:41;7.78;;;2.65;;
55913;SDS011;58179;48.776;9.124;2024-02-23T05:29:09;6.85;;;2.72;;
55913;SDS011;58179;48.776;9.124;2024-02-23T05:31:45;7.18;;;2.80;;
55913;SDS011;58179;48.776;9.124;2024-02-23T05:34:12;6.30;;;2.92;;
55913;SDS011;58179;48.776;9.124;2024-02-23T05:36:38;7.07;;;2.75;;
55913;SDS011;58179;48.776;9.124;2024-02-23T05:39:05;6.88;;;2.78;;
55913;SDS011;58179;48.776;9.124;2024-02-23T05:41:32;5.53;;;2.35;;
55913;SDS011;58179;48.776;9.124;2024-02-23T05:43:58;5.73;;;2.60;;
55913;SDS011;58179;48.776;9.124;2024-02-23T05:46:24;5.47;;;2.60;;
55913;SDS011;58179;48.776;9.124;2024-02-23T05:48:52;9.93;;;2.60;;
55913;SDS011;58179;48.776;9.124;2024-02-23T05:51:18;5.63;;;2.47;;
55913;SDS011;58179;48.776;9.124;2024-02-23T05:53:45;5.27;;;2.50;;
55913;SDS011;58179;48.776;9.124;2024-02-23T05:56:11;7.22;;;2.50;;
55913;SDS011;58179;48.776;9.124;2024-02-23T05:58:37;7.03;;;2.70;;
55913;SDS011;58179;48.776;9.124;2024-02-23T06:01:03;13.63;;;3.22;;
55913;SDS011;58179;48.776;9.124;2024-02-23T06:03:29;4.43;;;2.33;;
55913;SDS011;58179;48.776;9.124;2024-02-23T06:05:57;11.02;;;3.00;;
55913;SDS011;58179;48.776;9.124;2024-02-23T06:08:23;6.30;;;2.70;;
55913;SDS011;58179;48.776;9.124;2024-02-23T06:10:49;12.07;;;3.20;;
55913;SDS011;58179;48.776;9.124;2024-02-23T06:13:15;6.38;;;3.03;;
55913;SDS011;58179;48.776;9.124;2024-02-23T06:15:42;7.87;;;2.70;;
55913;SDS011;58179;48.776;9.124;2024-02-23T06:18:08;9.00;;;2.67;;
55913;SDS011;58179;48.776;9.124;2024-02-23T06:20:34;9.32;;;2.92;;
55913;SDS011;58179;48.776;9.124;2024-02-23T06:23:02;5.68;;;2.67;;
55913;SDS011;58179;48.776;9.124;2024-02-23T06:25:28;4.40;;;2.90;;
55913;SDS011;58179;48.776;9.124;2024-02-23T06:27:54;12.93;;;3.40;;
55913;SDS011;58179;48.776;9.124;2024-02-23T06:30:20;8.45;;;3.40;;
55913;SDS011;58179;48.776;9.124;2024-02-23T06:32:46;8.43;;;2.85;;
55913;SDS011;58179;48.776;9.124;2024-02-23T06:35:12;6.25;;;2.72;;
55913;SDS011;58179;48.776;9.124;2024-02-23T06:37:39;5.43;;;2.65;;
55913;SDS011;58179;48.776;9.124;2024-02-23T06:40:07;5.25;;;2.60;;
55913;SDS011;58179;48.776;9.124;2024-02-23T06:42:34;7.38;;;2.90;;
55913;SDS011;58179;48.776;9.124;2024-02-23T06:45:00;9.98;;;3.08;;
55913;SDS011;58179;48.776;9.124;2024-02-23T06:47:26;6.65;;;3.10;;
55913;SDS011;58179;48.776;9.124;2024-02-23T06:49:52;9.75;;;2.90;;
55913;SDS011;58179;48.776;9.124;2024-02-23T06:52:18;5.72;;;3.17;;
55913;SDS011;58179;48.776;9.124;2024-02-23T06:54:44;10.43;;;3.80;;
55913;SDS011;58179;48.776;9.124;2024-02-23T06:57:12;9.20;;;3.47;;
55913;SDS011;58179;48.776;9.124;2024-02-23T06:59:38;8.45;;;2.95;;
55913;SDS011;58179;48.776;9.124;2024-02-23T07:02:04;9.50;;;3.03;;
55913;SDS011;58179;48.776;9.124;2024-02-23T07:04:30;12.18;;;3.13;;
55913;SDS011;58179;48.776;9.124;2024-02-23T07:06:57;6.93;;;3.25;;
55913;SDS011;58179;48.776;9.124;2024-02-23T07:09:23;8.88;;;2.90;;
55913;SDS011;58179;48.776;9.124;2024-02-23T07:11:49;6.72;;;3.10;;
55913;SDS011;58179;48.776;9.124;2024-02-23T07:14:17;7.03;;;3.10;;
55913;SDS011;58179;48.776;9.124;2024-02-23T07:16:45;6.75;;;3.33;;
55913;SDS011;58179;48.776;9.124;2024-02-23T07:19:12;5.70;;;2.90;;
55913;SDS011;58179;48.776;9.124;2024-02-23T07:21:38;9.02;;;3.50;;
55913;SDS011;58179;48.776;9.124;2024-02-23T07:24:04;5.78;;;3.13;;
55913;SDS011;58179;48.776;9.124;2024-02-23T07:26:31;10.23;;;3.40;;
55913;SDS011;58179;48.776;9.124;2024-02-23T07:28:57;4.90;;;3.30;;
55913;SDS011;58179;48.776;9.124;2024-02-23T07:31:24;7.63;;;3.20;;
55913;SDS011;58179;48.776;9.124;2024-02-23T07:33:51;6.57;;;2.97;;
55913;SDS011;58179;48.776;9.124;2024-02-23T07:36:17;6.63;;;3.17;;
55913;SDS011;58179;48.776;9.124;2024-02-23T07:38:43;7.07;;;3.10;;
55913;SDS011;58179;48.776;9.124;2024-02-23T07:41:09;8.73;;;3.45;;
55913;SDS011;58179;48.776;9.124;2024-02-23T07:43:36;12.70;;;3.88;;
55913;SDS011;58179;48.776;9.124;2024-02-23T07:46:02;5.95;;;3.05;;
55913;SDS011;58179;48.776;9.124;2024-02-23T07:48:31;8.68;;;3.53;;
55913;SDS011;58179;48.776;9.124;2024-02-23T07:50:57;6.68;;;3.50;;
55913;SDS011;58179;48.776;9.124;2024-02-23T07:53:23;8.00;;;3.40;;
55913;SDS011;58179;48.776;9.124;2024-02-23T07:55:49;6.75;;;2.85;;
55913;SDS011;58179;48.776;9.124;2024-02-23T07:58:15;10.23;;;3.40;;
55913;SDS011;58179;48.776;9.124;2024-02-23T08:00:41;7.35;;;2.70;;
55913;SDS011;58179;48.776;9.124;2024-02-23T08:03:08;9.82;;;3.40;;
55913;SDS011;58179;48.776;9.124;2024-02-23T08:05:36;10.80;;;3.22;;
55913;SDS011;58179;48.776;9.124;2024-02-23T08:08:03;8.30;;;3.00;;
55913;SDS011;58179;48.776;9.124;2024-02-23T08:10:29;15.02;;;3.50;;
55913;SDS011;58179;48.776;9.124;2024-02-23T08:12:55;6.50;;;2.92;;
55913;SDS011;58179;48.776;9.124;2024-02-23T08:15:22;8.40;;;2.90;;
55913;SDS011;58179;48.776;9.124;2024-02-23T08:17:48;7.93;;;2.95;;
55913;SDS011;58179;48.776;9.124;2024-02-23T08:20:14;13.95;;;3.20;;
55913;SDS011;58179;48.776;9.124;2024-02-23T08:22:42;7.13;;;2.85;;
55913;SDS011;58179;48.776;9.124;2024-02-23T08:25:09;6.50;;;2.78;;
55913;SDS011;58179;48.776;9.124;2024-02-23T08:27:35;12.07;;;3.20;;
55913;SDS011;58179;48.776;9.124;2024-02-23T08:30:02;6.20;;;2.50;;
55913;SDS011;58179;48.776;9.124;2024-02-23T08:32:28;12.02;;;2.90;;
55913;SDS011;58179;48.776;9.124;2024-02-23T08:34:55;7.25;;;3.00;;
55913;SDS011;58179;48.776;9.124;2024-02-23T08:37:27;9.23;;;2.70;;
55913;SDS011;58179;48.776;9.124;2024-02-23T08:39:54;18.23;;;3.00;;
55913;SDS011;58179;48.776;9.124;2024-02-23T08:42:21;9.30;;;2.72;;
55913;SDS011;58179;48.776;9.124;2024-02-23T08:44:47;11.48;;;2.78;;
55913;SDS011;58179;48.776;9.124;2024-02-23T08:47:14;9.88;;;2.60;;
55913;SDS011;58179;48.776;9.124;2024-02-23T08:49:40;10.88;;;2.85;;
55913;SDS011;58179;48.776;9.124;2024-02-23T08:52:06;10.00;;;3.20;;
55913;SDS011;58179;48.776;9.124;2024-02-23T08:54:32;10.02;;;3.08;;
55913;SDS011;58179;48.776;9.124;2024-02-23T08:57:00;8.70;;;2.70;;
55913;SDS011;58179;48.776;9.124;2024-02-23T08:59:26;10.38;;;2.90;;
55913;SDS011;58179;48.776;9.124;2024-02-23T09:01:52;10.82;;;2.35;;
55913;SDS011;58179;48.776;9.124;2024-02-23T09:04:18;10.30;;;2.35;;
55913;SDS011;58179;48.776;9.124;2024-02-23T09:06:44;19.88;;;3.13;;
55913;SDS011;58179;48.776;9.124;2024-02-23T09:09:10;8.27;;;2.58;;
55913;SDS011;58179;48.776;9.124;2024-02-23T09:11:37;11.55;;;2.25;;
55913;SDS011;58179;48.776;9.124;2024-02-23T09:14:04;8.23;;;2.15;;
55913;SDS011;58179;48.776;9.124;2024-02-23T09:16:30;10.73;;;2.67;;
55913;SDS011;58179;48.776;9.124;2024-02-23T09:18:57;7.25;;;2.30;;
55913;SDS011;58179;48.776;9.124;2024-02-23T09:21:23;14.73;;;2.72;;
55913;SDS011;58179;48.776;9.124;2024-02-23T09:23:49;10.80;;;2.40;;
55913;SDS011;58179;48.776;9.124;2024-02-23T09:26:15;13.20;;;2.22;;
55913;SDS011;58179;48.776;9.124;2024-02-23T09:28:43;14.05;;;2.47;;
55913;SDS011;58179;48.776;9.124;2024-02-23T09:31:11;11.30;;;2.50;;
55913;SDS011;58179;48.776;9.124;2024-02-23T09:33:37;10.07;;;2.40;;
55913;SDS011;58179;48.776;9.124;2024-02-23T09:36:04;8.88;;;2.60;;
55913;SDS011;58179;48.776;9.124;2024-02-23T09:38:30;6.25;;;2.38;;
55913;SDS011;58179;48.776;9.124;2024-02-23T09:40:57;13.65;;;2.58;;
55913;SDS011;58179;48.776;9.124;2024-02-23T09:43:25;5.43;;;2.30;;
55913;SDS011;58179;48.776;9.124;2024-02-23T09:45:57;8.95;;;2.17;;
55913;SDS011;58179;48.776;9.124;2024-02-23T09:48:25;9.80;;;1.98;;
55913;SDS011;58179;48.776;9.124;2024-02-23T09:50:52;7.82;;;2.13;;
55913;SDS011;58179;48.776;9.124;2024-02-23T09:53:21;4.43;;;1.70;;
55913;SDS011;58179;48.776;9.124;2024-02-23T09:55:49;4.90;;;1.70;;
55913;SDS011;58179;48.776;9.124;2024-02-23T09:58:16;6.15;;;1.88;;
55913;SDS011;58179;48.776;9.124;2024-02-23T10:00:44;4.82;;;1.80;;
55913;SDS011;58179;48.776;9.124;2024-02-23T10:03:10;7.22;;;1.73;;
55913;SDS011;58179;48.776;9.124;2024-02-23T10:05:37;8.70;;;2.23;;
55913;SDS011;58179;48.776;9.124;2024-02-23T10:08:04;6.70;;;1.75;;
55913;SDS011;58179;48.776;9.124;2024-02-23T10:10:32;3.78;;;1.40;;
55913;SDS011;58179;48.776;9.124;2024-02-23T10:12:59;6.57;;;1.70;;
55913;SDS011;58179;48.776;9.124;2024-02-23T10:15:25;6.38;;;1.80;;
55913;SDS011;58179;48.776;9.124;2024-02-23T10:17:53;4.35;;;1.58;;
55913;SDS011;58179;48.776;9.124;2024-02-23T10:20:20;3.03;;;1.40;;
55913;SDS011;58179;48.776;9.124;2024-02-23T10:22:47;2.78;;;1.45;;
55913;SDS011;58179;48.776;9.124;2024-02-23T10:25:13;3.90;;;1.52;;
55913;SDS011;58179;48.776;9.124;2024-02-23T10:27:40;4.18;;;1.60;;
55913;SDS011;58179;48.776;9.124;2024-02-23T10:30:07;5.22;;;1.83;;
55913;SDS011;58179;48.776;9.124;2024-02-23T10:32:36;7.22;;;1.83;;
55913;SDS011;58179;48.776;9.124;2024-02-23T10:35:07;3.38;;;1.60;;
55913;SDS011;58179;48.776;9.124;2024-02-23T10:37:40;10.10;;;1.90;;
55913;SDS011;58179;48.776;9.124;2024-02-23T10:40:09;4.03;;;1.65;;
55913;SDS011;58179;48.776;9.124;2024-02-23T10:42:40;6.00;;;1.60;;
55913;SDS011;58179;48.776;9.124;2024-02-23T10:45:12;4.57;;;1.63;;
55913;SDS011;58179;48.776;9.124;2024-02-23T10:47:40;5.90;;;1.85;;
55913;SDS011;58179;48.776;9.124;2024-02-23T10:50:07;8.05;;;2.50;;
55913;SDS011;58179;48.776;9.124;2024-02-23T10:52:35;7.28;;;2.63;;
55913;SDS011;58179;48.776;9.124;2024-02-23T10:55:03;6.53;;;1.70;;
55913;SDS011;58179;48.776;9.124;2024-02-23T10:57:35;4.70;;;2.07;;
55913;SDS011;58179;48.776;9.124;2024-02-23T11:00:02;2.95;;;1.50;;
55913;SDS011;58179;48.776;9.124;2024-02-23T11:02:35;7.57;;;1.60;;
55913;SDS011;58179;48.776;9.124;2024-02-23T11:05:05;5.22;;;1.73;;
55913;SDS011;58179;48.776;9.124;2024-02-23T11:07:37;6.65;;;1.70;;
55913;SDS011;58179;48.776;9.124;2024-02-23T11:10:05;6.05;;;1.70;;
55913;SDS011;58179;48.776;9.124;2024-02-23T11:12:33;8.13;;;2.00;;
55913;SDS011;58179;48.776;9.124;2024-02-23T11:15:01;4.43;;;1.70;;
55913;SDS011;58179;48.776;9.124;2024-02-23T11:17:29;5.43;;;1.70;;
55913;SDS011;58179;48.776;9.124;2024-02-23T11:19:57;10.38;;;1.92;;
55913;SDS011;58179;48.776;9.124;2024-02-23T11:22:24;7.47;;;2.20;;
55913;SDS011;58179;48.776;9.124;2024-02-23T11:24:59;4.70;;;2.03;;
55913;SDS011;58179;48.776;9.124;2024-02-23T11:27:29;10.80;;;2.40;;
55913;SDS011;58179;48.776;9.124;2024-02-23T11:30:01;9.85;;;2.33;;
55913;SDS011;58179;48.776;9.124;2024-02-23T11:32:35;6.38;;;1.90;;
55913;SDS011;58179;48.776;9.124;2024-02-23T11:35:05;10.38;;;1.60;;
55913;SDS011;58179;48.776;9.124;2024-02-23T11:37:32;5.25;;;1.75;;
55913;SDS011;58179;48.776;9.124;2024-02-23T11:40:09;5.72;;;1.50;;
55913;SDS011;58179;48.776;9.124;2024-02-23T11:42:37;8.98;;;1.90;;
55913;SDS011;58179;48.776;9.124;2024-02-23T11:45:06;6.97;;;1.77;;
55913;SDS011;58179;48.776;9.124;2024-02-23T11:47:33;10.68;;;2.10;;
55913;SDS011;58179;48.776;9.124;2024-02-23T11:50:01;6.75;;;1.95;;
55913;SDS011;58179;48.776;9.124;2024-02-23T11:52:27;10.65;;;2.45;;
55913;SDS011;58179;48.776;9.124;2024-02-23T11:54:53;11.95;;;1.88;;
55913;SDS011;58179;48.776;9.124;2024-02-23T11:57:21;11.17;;;2.20;;
55913;SDS011;58179;48.776;9.124;2024-02-23T11:59:47;4.82;;;1.70;;
55913;SDS011;58179;48.776;9.124;2024-02-23T12:02:16;10.68;;;2.42;;
55913;SDS011;58179;48.776;9.124;2024-02-23T12:04:43;4.70;;;1.60;;
55913;SDS011;58179;48.776;9.124;2024-02-23T12:07:09;8.75;;;1.90;;
55913;SDS011;58179;48.776;9.124;2024-02-23T12:09:36;8.80;;;2.07;;
55913;SDS011;58179;48.776;9.124;2024-02-23T12:12:06;9.52;;;2.30;;
55913;SDS011;58179;48.776;9.124;2024-02-23T12:14:34;9.80;;;2.20;;
55913;SDS011;58179;48.776;9.124;2024-02-23T12:17:01;6.82;;;1.80;;
55913;SDS011;58179;48.776;9.124;2024-02-23T12:19:30;10.00;;;1.90;;
55913;SDS011;58179;48.776;9.124;2024-02-23T12:21:59;6.05;;;1.98;;
55913;SDS011;58179;48.776;9.124;2024-02-23T12:24:26;7.80;;;2.65;;
55913;SDS011;58179;48.776;9.124;2024-02-23T12:26:53;11.95;;;2.35;;
55913;SDS011;58179;48.776;9.124;2024-02-23T12:29:20;8.50;;;2.13;;
55913;SDS011;58179;48.776;9.124;2024-02-23T12:31:46;9.35;;;2.30;;
55913;SDS011;58179;48.776;9.124;2024-02-23T12:34:12;7.85;;;2.13;;
55913;SDS011;58179;48.776;9.124;2024-02-23T12:36:42;8.00;;;2.05;;
55913;SDS011;58179;48.776;9.124;2024-02-23T12:39:11;10.20;;;2.00;;
55913;SDS011;58179;48.776;9.124;2024-02-23T12:41:37;6.03;;;2.42;;
55913;SDS011;58179;48.776;9.124;2024-02-23T12:44:03;10.45;;;2.05;;
55913;SDS011;58179;48.776;9.124;2024-02-23T12:46:29;10.15;;;2.15;;
55913;SDS011;58179;48.776;9.124;2024-02-23T12:48:55;4.00;;;1.80;;
55913;SDS011;58179;48.776;9.124;2024-02-23T12:51:24;6.07;;;1.63;;
55913;SDS011;58179;48.776;9.124;2024-02-23T12:53:52;8.27;;;2.25;;
55913;SDS011;58179;48.776;9.124;2024-02-23T12:56:19;14.88;;;2.25;;
55913;SDS011;58179;48.776;9.124;2024-02-23T12:58:45;6.57;;;2.10;;
55913;SDS011;58179;48.776;9.124;2024-02-23T13:01:11;6.05;;;1.90;;
55913;SDS011;58179;48.776;9.124;2024-02-23T13:03:38;6.70;;;1.88;;
55913;SDS011;58179;48.776;9.124;2024-02-23T13:06:08;9.77;;;2.10;;
55913;SDS011;58179;48.776;9.124;2024-02-23T13:08:34;4.72;;;1.98;;
55913;SDS011;58179;48.776;9.124;2024-02-23T13:11:01;8.93;;;2.10;;
55913;SDS011;58179;48.776;9.124;2024-02-23T13:13:28;11.77;;;2.15;;
55913;SDS011;58179;48.776;9.124;2024-02-23T13:15:54;9.30;;;2.30;;
55913;SDS011;58179;48.776;9.124;2024-02-23T13:18:21;8.63;;;1.65;;
55913;SDS011;58179;48.776;9.124;2024-02-23T13:20:48;6.00;;;2.00;;
55913;SDS011;58179;48.776;9.124;2024-02-23T13:23:14;4.47;;;1.90;;
55913;SDS011;58179;48.776;9.124;2024-02-23T13:25:41;5.57;;;1.85;;
55913;SDS011;58179;48.776;9.124;2024-02-23T13:28:09;5.13;;;1.73;;
55913;SDS011;58179;48.776;9.124;2024-02-23T13:30:35;8.93;;;1.85;;
55913;SDS011;58179;48.776;9.124;2024-02-23T13:33:02;9.65;;;2.17;;
55913;SDS011;58179;48.776;9.124;2024-02-23T13:35:29;8.50;;;1.95;;
55913;SDS011;58179;48.776;9.124;2024-02-23T13:37:56;10.40;;;2.13;;
55913;SDS011;58179;48.776;9.124;2024-02-23T13:40:24;9.88;;;2.28;;
55913;SDS011;58179;48.776;9.124;2024-02-23T13:42:51;8.95;;;3.05;;
55913;SDS011;58179;48.776;9.124;2024-02-23T13:45:21;5.57;;;1.73;;
55913;SDS011;58179;48.776;9.124;2024-02-23T13:47:55;6.60;;;1.98;;
55913;SDS011;58179;48.776;9.124;2024-02-23T13:50:22;6.93;;;1.90;;
55913;SDS011;58179;48.776;9.124;2024-02-23T13:52:48;11.77;;;2.65;;
55913;SDS011;58179;48.776;9.124;2024-02-23T13:55:14;6.55;;;1.75;;
55913;SDS011;58179;48.776;9.124;2024-02-23T13:57:40;8.50;;;2.47;;
55913;SDS011;58179;48.776;9.124;2024-02-23T14:00:07;7.18;;;1.98;;
55913;SDS011;58179;48.776;9.124;2024-02-23T14:02:39;11.40;;;2.20;;
55913;SDS011;58179;48.776;9.124;2024-02-23T14:05:08;6.47;;;2.17;;
55913;SDS011;58179;48.776;9.124;2024-02-23T14:07:35;4.38;;;1.83;;
55913;SDS011;58179;48.776;9.124;2024-02-23T14:10:01;8.05;;;2.10;;
55913;SDS011;58179;48.776;9.124;2024-02-23T14:12:28;7.37;;;1.80;;
55913;SDS011;58179;48.776;9.124;2024-02-23T14:14:55;6.90;;;1.83;;
55913;SDS011;58179;48.776;9.124;2024-02-23T14:17:22;7.75;;;2.15;;
55913;SDS011;58179;48.776;9.124;2024-02-23T14:19:50;8.77;;;2.40;;
55913;SDS011;58179;48.776;9.124;2024-02-23T14:22:16;5.85;;;2.10;;
55913;SDS011;58179;48.776;9.124;2024-02-23T14:24:42;5.80;;;1.50;;
55913;SDS011;58179;48.776;9.124;2024-02-23T14:27:08;7.97;;;2.60;;
55913;SDS011;58179;48.776;9.124;2024-02-23T14:29:35;7.03;;;1.80;;
55913;SDS011;58179;48.776;9.124;2024-02-23T14:32:01;7.47;;;2.20;;
55913;SDS011;58179;48.776;9.124;2024-02-23T14:34:27;8.55;;;1.88;;
55913;SDS011;58179;48.776;9.124;2024-02-23T14:36:56;7.13;;;2.28;;
55913;SDS011;58179;48.776;9.124;2024-02-23T14:39:22;10.32;;;2.28;;
55913;SDS011;58179;48.776;9.124;2024-02-23T14:41:49;11.80;;;3.45;;
55913;SDS011;58179;48.776;9.124;2024-02-23T14:44:15;8.35;;;2.22;;